Map

Track Data

SID SEASON NUMBER BASIN SUBBASIN NAME ISO_TIME NATURE LAT LON WMO_WIND WMO_PRES WMO_AGENCY TRACK_TYPE DIST2LAND LANDFALL IFLAG USA_AGENCY USA_ATCF_ID USA_LAT USA_LON USA_RECORD USA_STATUS USA_WIND USA_PRES USA_SSHS USA_R34_NE USA_R34_SE USA_R34_SW USA_R34_NW USA_R50_NE USA_R50_SE USA_R50_SW USA_R50_NW USA_R64_NE USA_R64_SE USA_R64_SW USA_R64_NW USA_POCI USA_ROCI USA_RMW USA_EYE TOKYO_LAT TOKYO_LON TOKYO_GRADE TOKYO_WIND TOKYO_PRES TOKYO_R50_DIR TOKYO_R50_LONG TOKYO_R50_SHORT TOKYO_R30_DIR TOKYO_R30_LONG TOKYO_R30_SHORT TOKYO_LAND CMA_LAT CMA_LON CMA_CAT CMA_WIND CMA_PRES HKO_LAT HKO_LON HKO_CAT HKO_WIND HKO_PRES NEWDELHI_LAT NEWDELHI_LON NEWDELHI_GRADE NEWDELHI_WIND NEWDELHI_PRES NEWDELHI_CI NEWDELHI_DP NEWDELHI_POCI REUNION_LAT REUNION_LON REUNION_TYPE REUNION_WIND REUNION_PRES REUNION_TNUM REUNION_CI REUNION_RMW REUNION_R34_NE REUNION_R34_SE REUNION_R34_SW REUNION_R34_NW REUNION_R50_NE REUNION_R50_SE REUNION_R50_SW REUNION_R50_NW REUNION_R64_NE REUNION_R64_SE REUNION_R64_SW REUNION_R64_NW BOM_LAT BOM_LON BOM_TYPE BOM_WIND BOM_PRES BOM_TNUM BOM_CI BOM_RMW BOM_R34_NE BOM_R34_SE BOM_R34_SW BOM_R34_NW BOM_R50_NE BOM_R50_SE BOM_R50_SW BOM_R50_NW BOM_R64_NE BOM_R64_SE BOM_R64_SW BOM_R64_NW BOM_ROCI BOM_POCI BOM_EYE BOM_POS_METHOD BOM_PRES_METHOD NADI_LAT NADI_LON NADI_CAT NADI_WIND NADI_PRES WELLINGTON_LAT WELLINGTON_LON WELLINGTON_WIND WELLINGTON_PRES DS824_LAT DS824_LON DS824_STAGE DS824_WIND DS824_PRES TD9636_LAT TD9636_LON TD9636_STAGE TD9636_WIND TD9636_PRES TD9635_LAT TD9635_LON TD9635_WIND TD9635_PRES TD9635_ROCI NEUMANN_LAT NEUMANN_LON NEUMANN_CLASS NEUMANN_WIND NEUMANN_PRES MLC_LAT MLC_LON MLC_CLASS MLC_WIND MLC_PRES USA_GUST BOM_GUST BOM_GUST_PER REUNION_GUST REUNION_GUST_PER USA_SEAHGT USA_SEARAD_NE USA_SEARAD_SE USA_SEARAD_SW USA_SEARAD_NW STORM_SPEED STORM_DIR
2018131N12235 2018 23 EP MM NOT_NAMED 2018-05-10 12:00:00 TS 12.1000 -125.400 25 1008 hurdat_epa main 1986 1986 O_____________ hurdat_epa EP012018 12.1000 -125.400 TD 25 1008 -1 1012 120 70 8 286
2018131N12235 2018 23 EP MM NOT_NAMED 2018-05-10 15:00:00 TS 12.2101 -125.790 main 2007 2007 P_____________ EP012018 12.2101 -125.790 TD 27 1007 -1 1012 120 70 8 284
2018131N12235 2018 23 EP MM NOT_NAMED 2018-05-10 18:00:00 TS 12.3000 -126.200 30 1007 hurdat_epa main 2030 2030 O_____________ hurdat_epa EP012018 12.3000 -126.200 TD 30 1007 -1 1012 120 70 40 8 280
2018131N12235 2018 23 EP MM NOT_NAMED 2018-05-10 21:00:00 TS 12.3575 -126.643 main 2052 2052 P_____________ EP012018 12.3575 -126.643 TD 30 1007 -1 1012 120 70 9 276
2018131N12235 2018 23 EP MM NOT_NAMED 2018-05-11 00:00:00 TS 12.4000 -127.100 30 1007 hurdat_epa main 2091 2091 O_____________ hurdat_epa EP012018 12.4000 -127.100 TD 30 1007 -1 1012 120 70 40 9 276
2018131N12235 2018 23 EP MM NOT_NAMED 2018-05-11 03:00:00 TS 12.4500 -127.565 main 2123 2123 P_____________ EP012018 12.4500 -127.565 TD 30 1007 -1 1012 120 55 9 276
2018131N12235 2018 23 EP MM NOT_NAMED 2018-05-11 06:00:00 TS 12.5000 -128.000 30 1007 hurdat_epa main 2156 2156 O_____________ hurdat_epa EP012018 12.5000 -128.000 TD 30 1007 -1 1012 120 40 40 8 277
2018131N12235 2018 23 EP MM NOT_NAMED 2018-05-11 09:00:00 TS 12.5499 -128.373 main 2188 2181 P_____________ EP012018 12.5499 -128.373 TD 30 1007 -1 1012 120 40 7 278
2018131N12235 2018 23 EP MM NOT_NAMED 2018-05-11 12:00:00 TS 12.6000 -128.700 30 1007 hurdat_epa main 2205 2205 O_____________ hurdat_epa EP012018 12.6000 -128.700 TD 30 1007 -1 1012 120 40 40 6 279
2018131N12235 2018 23 EP MM NOT_NAMED 2018-05-11 15:00:00 TS 12.6500 -129.015 main 2228 2220 P_____________ EP012018 12.6500 -129.015 TD 27 1007 -1 1012 120 40 6 280
2018131N12235 2018 23 EP MM NOT_NAMED 2018-05-11 18:00:00 DS 12.7000 -129.300 25 1008 hurdat_epa main 2240 2240 O_____________ hurdat_epa EP012018 12.7000 -129.300 LO 25 1008 -3 1012 120 40 40 6 280
2018131N12235 2018 23 EP MM NOT_NAMED 2018-05-11 21:00:00 DS 12.7425 -129.573 main 2261 2252 P_____________ EP012018 12.7425 -129.573 LO 25 1008 -3 1012 120 40 5 282
2018131N12235 2018 23 EP MM NOT_NAMED 2018-05-12 00:00:00 DS 12.8000 -129.800 25 1008 hurdat_epa main 2266 2265 O_____________ hurdat_epa EP012018 12.8000 -129.800 LO 25 1008 -3 1012 120 40 35 4 291
2018131N12235 2018 23 EP MM NOT_NAMED 2018-05-12 03:00:00 DS 12.8925 -129.973 main 2272 2264 P_____________ EP012018 12.8925 -129.973 LO 25 1008 -3 1012 120 40 4 304
2018131N12235 2018 23 EP MM NOT_NAMED 2018-05-12 06:00:00 DS 13.0000 -130.100 25 1008 hurdat_epa main 2271 2270 O_____________ hurdat_epa EP012018 13.0000 -130.100 LO 25 1008 -3 1012 120 40 3 312
2018131N12235 2018 23 EP MM NOT_NAMED 2018-05-12 09:00:00 DS 13.1075 -130.215 main 2270 2268 P_____________ EP012018 13.1075 -130.215 LO 25 1008 -3 1012 120 40 3 316
2018131N12235 2018 23 EP MM NOT_NAMED 2018-05-12 12:00:00 DS 13.2000 -130.300 25 1008 hurdat_epa main 2268 2267 O_____________ hurdat_epa EP012018 13.2000 -130.300 LO 25 1008 -3 1012 120 40 2 315
2018131N12235 2018 23 EP MM NOT_NAMED 2018-05-12 15:00:00 DS 13.2575 -130.373 main 2267 2267 P_____________ EP012018 13.2575 -130.373 LO 22 1008 -3 1012 120 40 1 317
2018131N12235 2018 23 EP MM NOT_NAMED 2018-05-12 18:00:00 DS 13.3000 -130.400 20 1009 hurdat_epa main 2267 2267 O_____________ hurdat_epa EP012018 13.3000 -130.400 LO 20 1009 -3 1012 120 40 1 0
2018131N12235 2018 23 EP MM NOT_NAMED 2018-05-12 21:00:00 DS 13.3500 -130.365 main 2259 2252 P_____________ EP012018 13.3500 -130.365 LO 20 1009 -3 1012 120 40 1 43
2018131N12235 2018 23 EP MM NOT_NAMED 2018-05-13 00:00:00 DS 13.4000 -130.300 20 1009 hurdat_epa main 2252 2244 O_____________ hurdat_epa EP012018 13.4000 -130.300 LO 20 1009 -3 1012 120 40 2 43
2018131N12235 2018 23 EP MM NOT_NAMED 2018-05-13 03:00:00 DS 13.4650 -130.250 main 2244 2236 P_____________ EP012018 13.4650 -130.250 LO 20 1009 -3 1012 120 40 1 43
2018131N12235 2018 23 EP MM NOT_NAMED 2018-05-13 06:00:00 DS 13.5000 -130.200 20 1010 hurdat_epa main 2236 2236 O_____________ hurdat_epa EP012018 13.5000 -130.200 LO 20 1010 -3 1012 120 40 1 87
2018131N12235 2018 23 EP MM NOT_NAMED 2018-05-13 09:00:00 DS 13.4700 -130.150 main 2229 2229 P_____________ EP012018 13.4700 -130.150 LO 20 1010 -3 1012 120 40 1 137
2018131N12235 2018 23 EP MM NOT_NAMED 2018-05-13 12:00:00 DS 13.4000 -130.100 20 1010 hurdat_epa main 2237 O_____________ hurdat_epa EP012018 13.4000 -130.100 LO 20 1010 -3 1012 120 40 2 142

About IBTrACS Database

This database is a web-friendly format of International Best Track Archive for Climate Stewardship (IBTrACS), a global best track data archive curated by NOAA dating back to 1842.

Updated: 2021-12-06